createdAt,value
2018-09-11T00:02:14.623Z,101794.86
2018-09-11T00:04:44.032Z,101797.40
2018-09-11T00:07:13.996Z,101789.11
2018-09-11T00:09:44.432Z,101793.86
2018-09-11T00:12:14.163Z,101793.86
2018-09-11T00:14:45.821Z,101786.79
2018-09-11T00:17:30.314Z,101790.50
2018-09-11T00:20:00.616Z,101785.95
2018-09-11T00:22:30.375Z,101783.39
2018-09-11T00:25:00.504Z,101779.51
2018-09-11T00:27:30.661Z,101785.41
2018-09-11T00:30:05.506Z,101785.75
2018-09-11T00:32:36.341Z,101783.05
2018-09-11T00:35:05.875Z,101782.70
2018-09-11T00:37:46.915Z,101778.47
2018-09-11T00:40:18.316Z,101781.85
2018-09-11T00:42:48.509Z,101783.01
2018-09-11T00:45:18.443Z,101778.66
2018-09-11T00:47:48.103Z,101781.16
2018-09-11T00:50:17.802Z,101779.11
2018-09-11T00:52:48.477Z,101768.02
2018-09-11T00:55:25.510Z,101770.05
2018-09-11T00:58:00.537Z,101771.71
2018-09-11T01:00:31.286Z,101770.21
2018-09-11T01:03:00.905Z,101762.45
2018-09-11T01:05:31.597Z,101763.66
2018-09-11T01:08:03.305Z,101764.84
2018-09-11T01:10:33.088Z,101767.00
2018-09-11T01:13:02.656Z,101771.37
2018-09-11T01:15:32.724Z,101771.83
2018-09-11T01:18:02.639Z,101767.22
2018-09-11T01:20:32.079Z,101767.35
2018-09-11T01:23:01.868Z,101768.36
2018-09-11T01:25:31.558Z,101765.66
2018-09-11T01:28:01.425Z,101767.80
2018-09-11T01:30:32.012Z,101764.10
2018-09-11T01:33:01.484Z,101755.30
2018-09-11T01:35:31.040Z,101754.43
2018-09-11T01:38:02.195Z,101751.54
2018-09-11T01:40:32.902Z,101744.30
2018-09-11T01:43:06.221Z,101739.23
2018-09-11T01:45:36.845Z,101739.30
2018-09-11T01:48:07.582Z,101739.66
2018-09-11T01:50:37.437Z,101741.70
2018-09-11T01:53:06.913Z,101738.87
2018-09-11T01:55:36.478Z,101735.75
2018-09-11T01:58:07.978Z,101739.14
2018-09-11T02:00:37.536Z,101744.53
2018-09-11T02:03:07.039Z,101743.05
2018-09-11T02:05:36.651Z,101740.94
2018-09-11T02:08:06.949Z,101721.86
2018-09-11T02:10:37.637Z,101724.95
2018-09-11T02:13:10.212Z,101718.70
2018-09-11T02:15:39.795Z,101721.39
2018-09-11T02:18:10.584Z,101725.53
2018-09-11T02:20:41.900Z,101728.37
2018-09-11T02:23:16.498Z,101732.07
2018-09-11T02:25:47.046Z,101732.08
2018-09-11T02:28:17.151Z,101729.20
2018-09-11T02:30:47.307Z,101727.04
2018-09-11T02:33:17.224Z,101734.27
2018-09-11T02:35:46.755Z,101742.36
2018-09-11T02:38:16.388Z,101744.39
2018-09-11T02:40:46.888Z,101745.76
2018-09-11T02:45:42.654Z,101755.20
2018-09-11T02:48:12.074Z,101760.75
2018-09-11T02:50:41.748Z,101763.30
2018-09-11T02:53:11.649Z,101759.95
2018-09-11T02:55:41.163Z,101765.64
2018-09-11T02:58:11.013Z,101772.34
2018-09-11T03:00:40.818Z,101766.13
2018-09-11T03:03:10.476Z,101766.44
2018-09-11T03:05:40.153Z,101768.94
2018-09-11T03:08:10.164Z,101767.59
2018-09-11T03:10:39.753Z,101764.86
2018-09-11T03:13:10.369Z,101763.31
2018-09-11T03:15:40.231Z,101761.41
2018-09-11T03:18:09.575Z,101763.03
2018-09-11T03:20:41.116Z,101762.91
2018-09-11T03:23:11.015Z,101769.20
2018-09-11T03:25:40.803Z,101765.70
2018-09-11T03:28:10.679Z,101763.37
2018-09-11T03:30:40.397Z,101773.02
2018-09-11T03:33:09.828Z,101769.61
2018-09-11T03:35:39.753Z,101767.19
2018-09-11T03:38:10.331Z,101764.48
2018-09-11T03:40:40.138Z,101765.22
2018-09-11T03:43:10.205Z,101766.61
2018-09-11T03:45:43.978Z,101775.85
2018-09-11T03:48:14.472Z,101766.44
2018-09-11T03:50:44.203Z,101774.40
2018-09-11T03:53:13.575Z,101772.69
2018-09-11T03:55:43.321Z,101768.14
2018-09-11T03:58:13.262Z,101772.03
2018-09-11T04:00:43.139Z,101775.94
2018-09-11T04:03:12.491Z,101778.98
2018-09-11T04:05:42.113Z,101742.32
2018-09-11T04:08:11.525Z,101785.41
2018-09-11T04:10:40.815Z,101788.95
2018-09-11T04:13:10.546Z,101788.16
2018-09-11T04:15:40.100Z,101785.47
2018-09-11T04:18:09.518Z,101786.62
2018-09-11T04:20:40.260Z,101786.95
2018-09-11T04:23:09.744Z,101789.01
2018-09-11T04:25:38.988Z,101790.30
2018-09-11T04:28:08.648Z,101785.98
2018-09-11T04:30:38.135Z,101788.75
2018-09-11T04:33:07.683Z,101790.46
2018-09-11T04:35:37.925Z,101787.95
2018-09-11T04:38:07.361Z,101783.94
2018-09-11T04:40:36.737Z,101772.10
2018-09-11T04:43:06.455Z,101778.00
2018-09-11T04:45:36.262Z,101720.67
2018-09-11T04:48:05.881Z,101779.00
2018-09-11T04:50:35.686Z,101783.00
2018-09-11T04:53:05.706Z,101776.41
2018-09-11T04:55:40.003Z,101780.92
2018-09-11T04:58:10.767Z,101774.06
2018-09-11T05:00:40.716Z,101773.11
2018-09-11T05:03:21.048Z,101773.10
2018-09-11T05:05:52.909Z,101773.76
2018-09-11T05:08:22.542Z,101774.11
2018-09-11T05:10:52.959Z,101764.66
2018-09-11T05:13:23.547Z,101771.72
2018-09-11T05:15:54.924Z,101757.91
2018-09-11T05:18:34.387Z,101759.07
2018-09-11T05:21:05.673Z,101757.48
2018-09-11T05:23:34.974Z,101757.21
2018-09-11T05:26:04.854Z,101753.44
2018-09-11T05:28:34.940Z,101762.03
2018-09-11T05:31:04.920Z,101767.08
2018-09-11T05:33:34.818Z,101768.92
2018-09-11T05:36:08.448Z,101766.09
2018-09-11T05:38:38.360Z,101771.12
2018-09-11T05:41:08.287Z,101767.58
2018-09-11T05:43:37.824Z,101777.10
2018-09-11T05:46:07.760Z,101770.98
2018-09-11T05:48:39.257Z,101775.06
2018-09-11T05:51:08.942Z,101769.28
2018-09-11T05:53:40.069Z,101773.55
2018-09-11T05:56:16.106Z,101773.06
2018-09-11T05:58:47.756Z,101772.75
2018-09-11T06:01:18.084Z,101776.15
2018-09-11T06:03:47.705Z,101768.90
2018-09-11T06:06:20.104Z,101777.84
2018-09-11T06:08:50.101Z,101776.15
2018-09-11T06:11:20.009Z,101779.34
2018-09-11T06:14:12.674Z,101778.47
2018-09-11T06:16:43.808Z,101779.04
2018-09-11T06:19:13.583Z,101782.23
2018-09-11T06:21:43.415Z,101785.47
2018-09-11T06:24:21.335Z,101782.91
2018-09-11T06:26:50.817Z,101783.11
2018-09-11T06:29:26.804Z,101781.09
2018-09-11T06:32:02.606Z,101774.00
2018-09-11T06:34:37.398Z,101780.11
2018-09-11T06:37:07.020Z,101793.09
2018-09-11T06:39:40.654Z,101786.18
2018-09-11T06:43:06.537Z,101785.48
2018-09-11T06:45:50.156Z,101783.58
2018-09-11T06:48:22.265Z,101789.49
2018-09-11T06:50:52.554Z,101788.09
2018-09-11T06:53:30.113Z,101790.00
2018-09-11T06:56:01.948Z,101787.39
2018-09-11T06:58:34.553Z,101793.55
2018-09-11T07:01:05.070Z,101800.56
2018-09-11T07:03:36.365Z,101794.80
2018-09-11T07:06:06.824Z,101794.13
2018-09-11T07:08:36.819Z,101793.84
2018-09-11T07:11:06.381Z,101796.57
2018-09-11T07:13:38.575Z,101797.45
2018-09-11T07:16:11.962Z,101802.90
2018-09-11T07:18:42.070Z,101811.20
2018-09-11T07:21:12.055Z,101801.56
2018-09-11T07:23:41.958Z,101806.55
2018-09-11T07:26:12.719Z,101808.20
2018-09-11T07:28:46.827Z,101811.92
2018-09-11T07:31:16.907Z,101813.49
2018-09-11T07:33:47.829Z,101811.05
2018-09-11T07:36:25.204Z,101812.77
2018-09-11T07:38:59.904Z,101816.03
2018-09-11T07:41:37.165Z,101817.52
2018-09-11T07:44:10.746Z,101826.20
2018-09-11T07:49:22.060Z,101815.81
2018-09-11T07:51:51.625Z,101809.52
2018-09-11T07:54:20.980Z,101806.20
2018-09-11T07:56:51.281Z,101811.30
2018-09-11T07:59:21.956Z,101812.64
2018-09-11T08:01:54.134Z,101815.74
2018-09-11T08:04:33.339Z,101814.00
2018-09-11T08:07:03.582Z,101813.52
2018-09-11T08:09:40.107Z,101811.75
2018-09-11T08:14:55.377Z,101821.05
2018-09-11T08:17:33.495Z,101824.45
2018-09-11T08:20:13.437Z,101818.81
2018-09-11T08:22:43.186Z,101812.74
2018-09-11T08:25:12.811Z,101814.05
2018-09-11T08:27:44.300Z,101816.34
2018-09-11T08:30:17.315Z,101814.14
2018-09-11T08:32:51.588Z,101815.19
2018-09-11T08:35:25.372Z,101810.14
2018-09-11T08:37:54.982Z,101812.89
2018-09-11T08:40:25.929Z,101802.50
2018-09-11T08:42:57.851Z,101803.65
2018-09-11T08:45:27.697Z,101812.59
2018-09-11T08:47:58.147Z,101807.48
2018-09-11T08:50:28.965Z,101811.49
2018-09-11T08:53:00.085Z,101807.34
2018-09-11T08:55:31.370Z,101811.16
2018-09-11T08:58:01.373Z,101804.96
2018-09-11T09:00:32.235Z,101816.27
2018-09-11T09:03:01.853Z,101810.89
2018-09-11T09:05:32.522Z,101799.94
2018-09-11T09:08:03.230Z,101820.18
2018-09-11T09:10:33.411Z,101818.30
2018-09-11T09:13:07.064Z,101800.74
2018-09-11T09:15:38.229Z,101817.73
2018-09-11T09:18:08.517Z,101810.48
2018-09-11T09:20:43.348Z,101800.47
2018-09-11T09:23:27.436Z,101788.28
2018-09-11T09:26:09.915Z,101802.39
2018-09-11T09:28:42.480Z,101793.20
2018-09-11T09:31:17.666Z,101785.45
2018-09-11T09:33:49.673Z,101791.25
2018-09-11T09:36:22.099Z,101709.28
2018-09-11T09:38:56.521Z,101790.48
2018-09-11T09:41:31.732Z,101783.52
2018-09-11T09:44:02.427Z,101788.56
2018-09-11T09:46:33.472Z,101789.80
2018-09-11T09:49:12.639Z,101788.22
2018-09-11T09:51:45.865Z,101779.94
2018-09-11T09:54:16.110Z,101789.26
2018-09-11T09:56:46.502Z,101791.94
2018-09-11T09:59:20.293Z,101798.12
2018-09-11T10:01:57.083Z,101804.51
2018-09-11T10:04:28.336Z,101801.59
2018-09-11T10:07:00.399Z,101807.40
2018-09-11T10:09:35.436Z,101811.06
2018-09-11T10:12:07.807Z,101809.63
2018-09-11T10:14:39.811Z,101811.06
2018-09-11T10:17:14.943Z,101813.71
2018-09-11T10:19:53.323Z,101813.82
2018-09-11T10:22:22.996Z,101803.81
2018-09-11T10:24:52.475Z,101790.66
2018-09-11T10:27:25.674Z,101794.12
2018-09-11T10:29:57.433Z,101797.81
2018-09-11T10:32:28.101Z,101793.13
2018-09-11T10:35:09.574Z,101788.39
2018-09-11T10:37:39.939Z,101792.94
2018-09-11T10:40:12.535Z,101787.48
2018-09-11T10:42:47.387Z,101791.72
2018-09-11T10:45:21.248Z,101783.05
2018-09-11T10:47:51.270Z,101781.52
2018-09-11T10:50:21.000Z,101779.57
2018-09-11T10:52:52.210Z,101773.03
2018-09-11T10:55:22.313Z,101778.06
2018-09-11T10:57:59.230Z,101768.89
2018-09-11T11:03:22.362Z,101770.19
2018-09-11T11:05:52.818Z,101764.22
2018-09-11T11:08:23.566Z,101768.41
2018-09-11T11:10:58.601Z,101762.61
2018-09-11T11:13:28.833Z,101761.09
2018-09-11T11:15:59.644Z,101759.40
2018-09-11T11:18:31.744Z,101765.59
2018-09-11T11:21:09.750Z,101756.55
2018-09-11T11:23:42.333Z,101758.57
2018-09-11T11:26:17.010Z,101760.52
2018-09-11T11:28:54.443Z,101759.78
2018-09-11T11:31:36.507Z,101754.52
2018-09-11T11:34:08.145Z,101746.33
2018-09-11T11:36:44.899Z,101755.22
2018-09-11T11:39:19.057Z,101761.28
2018-09-11T11:41:50.961Z,101756.80
2018-09-11T11:44:22.666Z,101750.39
2018-09-11T11:46:53.289Z,101762.31
2018-09-11T11:49:22.711Z,101750.61
2018-09-11T11:51:57.496Z,101745.91
2018-09-11T11:54:27.871Z,101750.06
2018-09-11T11:56:57.220Z,101751.45
2018-09-11T11:59:32.042Z,101754.28
2018-09-11T12:02:04.563Z,101751.38
2018-09-11T12:04:35.965Z,101756.71
2018-09-11T12:07:06.536Z,101749.19
2018-09-11T12:09:38.909Z,101751.63
2018-09-11T12:12:10.644Z,101743.49
2018-09-11T12:14:44.997Z,101738.88
2018-09-11T12:17:16.569Z,101732.56
2018-09-11T12:19:47.301Z,101736.14
2018-09-11T12:22:28.291Z,101719.06
2018-09-11T12:25:04.071Z,101720.55
2018-09-11T12:27:33.609Z,101733.01
2018-09-11T12:30:06.669Z,101722.56
2018-09-11T12:32:36.679Z,101722.44
2018-09-11T12:35:06.718Z,101716.54
2018-09-11T12:37:37.667Z,101713.47
2018-09-11T12:40:12.470Z,101704.96
2018-09-11T12:42:42.899Z,101709.56
2018-09-11T12:45:20.364Z,101716.38
2018-09-11T12:47:50.013Z,101674.91
2018-09-11T12:50:23.683Z,101706.27
2018-09-11T12:52:53.050Z,101703.47
2018-09-11T12:55:23.011Z,101705.21
2018-09-11T12:57:56.125Z,101698.62
2018-09-11T13:00:37.661Z,101696.25
2018-09-11T13:03:10.318Z,101705.20
2018-09-11T13:05:41.876Z,101703.26
2018-09-11T13:08:14.890Z,101702.91
2018-09-11T13:10:45.219Z,101694.87
2018-09-11T13:13:14.961Z,101694.70
2018-09-11T13:15:45.936Z,101689.31
2018-09-11T13:18:23.862Z,101694.95
2018-09-11T13:20:57.286Z,101696.56
2018-09-11T13:23:59.322Z,101694.27
2018-09-11T13:26:30.193Z,101671.88
2018-09-11T13:29:01.715Z,101677.03
2018-09-11T13:31:32.185Z,101671.71
2018-09-11T13:34:01.507Z,101673.48
2018-09-11T13:36:33.338Z,101671.31
2018-09-11T13:39:06.138Z,101664.04
2018-09-11T13:41:35.584Z,101658.53
2018-09-11T13:44:05.385Z,101654.57
2018-09-11T13:46:37.877Z,101658.62
2018-09-11T13:49:10.080Z,101655.70
2018-09-11T13:51:41.554Z,101648.66
2018-09-11T13:54:12.261Z,101651.12
2018-09-11T13:56:44.721Z,101644.27
2018-09-11T13:59:17.534Z,101647.83
2018-09-11T14:07:30.970Z,101645.62
2018-09-11T14:10:10.651Z,101638.48
2018-09-11T14:12:43.593Z,101632.45
2018-09-11T14:15:32.202Z,101630.25
2018-09-11T14:18:05.627Z,101631.84
2018-09-11T14:20:49.677Z,101634.88
2018-09-11T14:23:21.133Z,101624.44
2018-09-11T14:26:12.333Z,101631.84
2018-09-11T14:28:58.070Z,101631.50
2018-09-11T14:31:31.003Z,101617.41
2018-09-11T14:34:07.872Z,101623.59
2018-09-11T14:39:50.497Z,101621.06
2018-09-11T14:42:35.653Z,101622.58
2018-09-11T14:48:18.753Z,101618.72
2018-09-11T14:51:07.268Z,101615.72
2018-09-11T14:56:30.816Z,101613.42
2018-09-11T14:59:12.410Z,101614.05
2018-09-11T15:01:59.525Z,101609.44
2018-09-11T15:04:45.125Z,101607.69
2018-09-11T15:07:28.014Z,101607.44
2018-09-11T15:10:11.559Z,101605.38
2018-09-11T15:12:44.202Z,101605.95
2018-09-11T15:15:24.217Z,101614.44
2018-09-11T15:18:01.772Z,101603.73
2018-09-11T15:20:52.643Z,101605.72
2018-09-11T15:23:32.048Z,101593.79
2018-09-11T15:26:04.260Z,101593.81
2018-09-11T15:28:56.896Z,101592.61
2018-09-11T15:31:38.564Z,101591.05
2018-09-11T15:34:11.962Z,101587.39
2018-09-11T15:36:46.904Z,101590.84
2018-09-11T15:39:18.629Z,101581.50
2018-09-11T15:41:49.655Z,101579.59
2018-09-11T15:44:26.792Z,101540.20
2018-09-11T15:46:58.420Z,101568.25
2018-09-11T15:49:28.435Z,101568.81
2018-09-11T15:52:06.914Z,101561.77
2018-09-11T15:54:41.083Z,101555.84
2018-09-11T15:57:33.488Z,101554.78
2018-09-11T16:00:26.902Z,101549.34
2018-09-11T16:02:58.006Z,101551.67
2018-09-11T16:05:29.939Z,101549.34
2018-09-11T16:08:04.158Z,101537.83
2018-09-11T16:10:40.789Z,101538.14
2018-09-11T16:13:25.031Z,101534.63
2018-09-11T16:15:56.800Z,101539.02
2018-09-11T16:21:26.175Z,101537.76
2018-09-11T16:23:55.776Z,101531.44
2018-09-11T16:26:26.164Z,101528.81
2018-09-11T16:28:56.144Z,101526.33
2018-09-11T16:31:50.787Z,101529.99
2018-09-11T16:34:33.785Z,101530.75
2018-09-11T16:37:07.272Z,101520.88
2018-09-11T16:39:46.506Z,101518.14
2018-09-11T16:42:19.444Z,101522.86
2018-09-11T16:48:16.350Z,101518.94
2018-09-11T16:51:52.089Z,101519.16
2018-09-11T16:54:32.080Z,101516.13
2018-09-11T16:57:48.925Z,101522.86
2018-09-11T17:00:22.480Z,101527.80
2018-09-11T17:03:05.634Z,101524.19
2018-09-11T17:05:37.277Z,101533.64
2018-09-11T17:08:14.492Z,101527.16
2018-09-11T17:10:52.400Z,101523.92
2018-09-11T17:13:29.370Z,101526.80
2018-09-11T17:16:11.127Z,101525.34
2018-09-11T17:18:58.038Z,101528.39
2018-09-11T17:21:59.755Z,101525.30
2018-09-11T17:24:32.062Z,101532.15
2018-09-11T17:27:15.231Z,101529.88
2018-09-11T17:30:10.644Z,101527.72
2018-09-11T17:33:05.374Z,101535.41
2018-09-11T17:38:30.589Z,101540.55
2018-09-11T17:43:57.718Z,101543.80
2018-09-11T17:46:29.586Z,101545.79
2018-09-11T17:49:12.244Z,101551.49
2018-09-11T17:51:54.750Z,101554.98
2018-09-11T17:54:31.320Z,101553.92
2018-09-11T17:57:29.746Z,101551.87
2018-09-11T18:00:09.262Z,101556.99
2018-09-11T18:02:42.714Z,101511.03
2018-09-11T18:05:15.680Z,101567.88
2018-09-11T18:07:52.173Z,101567.64
2018-09-11T18:10:22.636Z,101568.86
2018-09-11T18:12:54.904Z,101569.86
2018-09-11T18:15:27.991Z,101572.23
2018-09-11T18:17:58.748Z,101568.10
2018-09-11T18:22:02.373Z,101577.67
2018-09-11T18:24:41.450Z,101575.47
2018-09-11T18:27:14.551Z,101588.94
2018-09-11T18:29:52.924Z,101592.32
2018-09-11T18:32:30.697Z,101584.55
2018-09-11T18:35:22.431Z,101585.02
2018-09-11T18:38:05.571Z,101593.97
2018-09-11T18:40:55.105Z,101595.48
2018-09-11T18:43:41.835Z,101596.00
2018-09-11T18:46:12.231Z,101601.22
2018-09-11T18:48:52.939Z,101605.78
2018-09-11T18:54:15.394Z,101599.45
2018-09-11T18:56:45.269Z,101600.13
2018-09-11T18:59:17.561Z,101603.81
2018-09-11T19:01:50.563Z,101601.39
2018-09-11T19:04:23.597Z,101597.50
2018-09-11T19:06:53.539Z,101605.11
2018-09-11T19:09:35.576Z,101610.20
2018-09-11T19:15:18.327Z,101614.91
2018-09-11T19:17:47.941Z,101609.41
2018-09-11T19:20:28.866Z,101614.70
2018-09-11T19:23:05.988Z,101616.72
2018-09-11T19:25:37.942Z,101616.20
2018-09-11T19:28:08.618Z,101613.11
2018-09-11T19:31:24.815Z,101614.09
2018-09-11T19:33:59.537Z,101605.58
2018-09-11T19:36:29.370Z,101609.56
2018-09-11T19:39:01.391Z,101602.55
2018-09-11T19:41:50.841Z,101612.37
2018-09-11T19:44:30.608Z,101610.65
2018-09-11T19:47:26.811Z,101602.20
2018-09-11T19:50:03.742Z,101597.09
2018-09-11T19:52:44.605Z,101607.94
2018-09-11T19:55:17.028Z,101607.51
2018-09-11T19:57:49.333Z,101607.31
2018-09-11T20:00:25.596Z,101605.54
2018-09-11T20:03:13.486Z,101613.63
2018-09-11T20:05:44.428Z,101607.14
2018-09-11T20:08:21.606Z,101602.41
2018-09-11T20:10:51.171Z,101609.22
2018-09-11T20:13:21.694Z,101602.00
2018-09-11T20:18:46.391Z,101560.36
2018-09-11T20:21:23.252Z,101601.90
2018-09-11T20:24:01.518Z,101600.53
2018-09-11T20:32:13.861Z,101605.32
2018-09-11T20:34:56.635Z,101611.67
2018-09-11T20:37:39.868Z,101615.11
2018-09-11T20:40:17.657Z,101614.47
2018-09-11T20:42:47.681Z,101620.71
2018-09-11T20:45:19.486Z,101615.44
2018-09-11T20:47:53.350Z,101613.16
2018-09-11T20:50:24.681Z,101612.77
2018-09-11T20:52:56.316Z,101608.45
2018-09-11T20:55:30.778Z,101611.41
2018-09-11T20:58:02.338Z,101617.98
2018-09-11T21:00:39.807Z,101611.84
2018-09-11T21:03:17.907Z,101579.08
2018-09-11T21:06:44.715Z,101617.05
2018-09-11T21:12:33.170Z,101617.63
2018-09-11T21:15:14.197Z,101614.55
2018-09-11T21:17:45.040Z,101611.82
2018-09-11T21:20:26.983Z,101620.73
2018-09-11T21:23:01.675Z,101617.88
2018-09-11T21:29:17.709Z,101617.27
2018-09-11T21:31:50.439Z,101623.45
2018-09-11T21:34:22.452Z,101624.77
2018-09-11T21:37:13.323Z,101622.84
2018-09-11T21:39:56.489Z,101630.42
2018-09-11T21:42:28.302Z,101636.76
2018-09-11T21:44:58.312Z,101639.67
2018-09-11T21:47:41.517Z,101635.57
2018-09-11T21:50:39.967Z,101638.83
2018-09-11T21:56:14.835Z,101637.55
2018-09-11T21:58:56.324Z,101637.79
2018-09-11T22:01:51.871Z,101640.78
2018-09-11T22:04:25.411Z,101634.48
2018-09-11T22:07:08.464Z,101641.71
2018-09-11T22:12:54.751Z,101631.30
2018-09-11T22:15:38.355Z,101640.31
2018-09-11T22:18:14.290Z,101636.23
2018-09-11T22:20:49.559Z,101634.78
2018-09-11T22:23:24.580Z,101642.87
2018-09-11T22:25:59.660Z,101643.52
2018-09-11T22:28:30.864Z,101654.06
2018-09-11T22:31:13.277Z,101645.47
2018-09-11T22:33:45.388Z,101652.20
2018-09-11T22:36:26.026Z,101651.02
2018-09-11T22:39:17.293Z,101613.70
2018-09-11T22:42:06.104Z,101650.06
2018-09-11T22:44:46.767Z,101642.77
2018-09-11T22:47:26.235Z,101639.31
2018-09-11T22:49:56.691Z,101642.28
2018-09-11T22:52:28.340Z,101643.13
2018-09-11T22:54:59.536Z,101635.42
2018-09-11T22:57:33.280Z,101636.92
2018-09-11T23:00:08.451Z,101640.08
2018-09-11T23:02:52.614Z,101637.88
2018-09-11T23:05:27.389Z,101640.30
2018-09-11T23:07:58.104Z,101635.81
2018-09-11T23:10:27.320Z,101637.36
2018-09-11T23:12:59.657Z,101635.89
2018-09-11T23:15:31.616Z,101633.51
2018-09-11T23:18:01.070Z,101628.92
2018-09-11T23:20:30.812Z,101634.47
2018-09-11T23:23:01.059Z,101630.91
2018-09-11T23:25:31.889Z,101627.91
2018-09-11T23:28:08.302Z,101630.25
2018-09-11T23:30:42.892Z,101625.70
2018-09-11T23:33:20.750Z,101625.58
2018-09-11T23:35:58.818Z,101623.56
2018-09-11T23:38:29.146Z,101625.06
2018-09-11T23:40:58.791Z,101619.31
2018-09-11T23:43:35.676Z,101620.48
2018-09-11T23:46:12.221Z,101620.86
2018-09-11T23:48:41.808Z,101618.07
2018-09-11T23:51:12.331Z,101621.11
2018-09-11T23:53:42.224Z,101616.14
2018-09-11T23:56:15.038Z,101614.34
2018-09-11T23:58:45.431Z,101609.86
